sensor_id;sensor_type;location;lat;lon;timestamp;pressure;altitude;pressure_sealevel;temperature;humidity
45888;BME280;31595;51.418;7.572;2022-08-07T00:01:05;101309.66;;;13.77;62.28
45888;BME280;31595;51.418;7.572;2022-08-07T00:03:33;101305.69;;;13.78;62.02
45888;BME280;31595;51.418;7.572;2022-08-07T00:06:01;101297.09;;;13.75;61.76
45888;BME280;31595;51.418;7.572;2022-08-07T00:08:28;101307.59;;;13.69;62.55
45888;BME280;31595;51.418;7.572;2022-08-07T00:10:56;101292.38;;;13.62;62.70
45888;BME280;31595;51.418;7.572;2022-08-07T00:13:23;101302.22;;;13.59;62.45
45888;BME280;31595;51.418;7.572;2022-08-07T00:15:52;101302.53;;;13.57;62.88
45888;BME280;31595;51.418;7.572;2022-08-07T00:18:24;101300.56;;;13.58;62.77
45888;BME280;31595;51.418;7.572;2022-08-07T00:20:53;101293.94;;;13.54;63.14
45888;BME280;31595;51.418;7.572;2022-08-07T00:23:21;101297.38;;;13.51;62.96
45888;BME280;31595;51.418;7.572;2022-08-07T00:25:49;101285.34;;;13.50;62.91
45888;BME280;31595;51.418;7.572;2022-08-07T00:28:16;101283.97;;;13.48;63.16
45888;BME280;31595;51.418;7.572;2022-08-07T00:30:44;101282.13;;;13.43;63.22
45888;BME280;31595;51.418;7.572;2022-08-07T00:33:13;101284.22;;;13.37;63.42
45888;BME280;31595;51.418;7.572;2022-08-07T00:35:40;101286.69;;;13.39;63.02
45888;BME280;31595;51.418;7.572;2022-08-07T00:38:07;101285.06;;;13.38;63.49
45888;BME280;31595;51.418;7.572;2022-08-07T00:40:35;101280.41;;;13.33;63.54
45888;BME280;31595;51.418;7.572;2022-08-07T00:43:03;101284.03;;;13.34;63.52
45888;BME280;31595;51.418;7.572;2022-08-07T00:45:31;101277.09;;;13.31;63.40
45888;BME280;31595;51.418;7.572;2022-08-07T00:47:58;101284.44;;;13.27;63.74
45888;BME280;31595;51.418;7.572;2022-08-07T00:50:27;101279.75;;;13.23;63.38
45888;BME280;31595;51.418;7.572;2022-08-07T00:52:54;101286.78;;;13.20;63.75
45888;BME280;31595;51.418;7.572;2022-08-07T00:55:22;101276.56;;;13.15;63.67
45888;BME280;31595;51.418;7.572;2022-08-07T00:57:49;101284.84;;;13.07;63.92
45888;BME280;31595;51.418;7.572;2022-08-07T01:00:18;101273.16;;;13.05;63.82
45888;BME280;31595;51.418;7.572;2022-08-07T01:02:45;101273.16;;;13.05;64.10
45888;BME280;31595;51.418;7.572;2022-08-07T01:05:13;101272.84;;;13.06;63.93
45888;BME280;31595;51.418;7.572;2022-08-07T01:07:42;101274.09;;;13.00;64.05
45888;BME280;31595;51.418;7.572;2022-08-07T01:10:10;101272.72;;;12.97;63.83
45888;BME280;31595;51.418;7.572;2022-08-07T01:12:39;101269.91;;;12.97;64.00
45888;BME280;31595;51.418;7.572;2022-08-07T01:15:08;101273.66;;;12.93;64.35
45888;BME280;31595;51.418;7.572;2022-08-07T01:17:36;101268.59;;;12.81;64.69
45888;BME280;31595;51.418;7.572;2022-08-07T01:20:06;101266.63;;;12.82;64.59
45888;BME280;31595;51.418;7.572;2022-08-07T01:22:37;101267.34;;;12.73;64.87
45888;BME280;31595;51.418;7.572;2022-08-07T01:25:07;101266.19;;;12.74;64.20
45888;BME280;31595;51.418;7.572;2022-08-07T01:27:35;101264.44;;;12.65;64.87
45888;BME280;31595;51.418;7.572;2022-08-07T01:30:03;101268.06;;;12.65;64.80
45888;BME280;31595;51.418;7.572;2022-08-07T01:32:31;101269.22;;;12.64;64.67
45888;BME280;31595;51.418;7.572;2022-08-07T01:34:59;101257.81;;;12.61;64.74
45888;BME280;31595;51.418;7.572;2022-08-07T01:37:27;101265.66;;;12.58;64.71
45888;BME280;31595;51.418;7.572;2022-08-07T01:39:56;101265.75;;;12.53;65.01
45888;BME280;31595;51.418;7.572;2022-08-07T01:42:25;101257.69;;;12.52;64.83
45888;BME280;31595;51.418;7.572;2022-08-07T01:44:52;101261.59;;;12.51;65.03
45888;BME280;31595;51.418;7.572;2022-08-07T01:47:20;101262.31;;;12.43;65.69
45888;BME280;31595;51.418;7.572;2022-08-07T01:49:48;101265.97;;;12.43;65.86
45888;BME280;31595;51.418;7.572;2022-08-07T01:52:16;101271.56;;;12.43;65.54
45888;BME280;31595;51.418;7.572;2022-08-07T01:54:44;101260.38;;;12.43;65.80
45888;BME280;31595;51.418;7.572;2022-08-07T01:57:18;101267.09;;;12.42;65.68
45888;BME280;31595;51.418;7.572;2022-08-07T01:59:53;101261.78;;;12.41;65.63
45888;BME280;31595;51.418;7.572;2022-08-07T02:02:24;101271.34;;;12.39;65.82
45888;BME280;31595;51.418;7.572;2022-08-07T02:04:58;101265.53;;;12.36;65.71
45888;BME280;31595;51.418;7.572;2022-08-07T02:07:32;101258.28;;;12.35;65.89
45888;BME280;31595;51.418;7.572;2022-08-07T02:10:02;101257.25;;;12.31;65.98
45888;BME280;31595;51.418;7.572;2022-08-07T02:12:37;101259.72;;;12.32;65.83
45888;BME280;31595;51.418;7.572;2022-08-07T02:15:07;101265.91;;;12.29;65.91
45888;BME280;31595;51.418;7.572;2022-08-07T02:17:37;101266.53;;;12.26;66.21
45888;BME280;31595;51.418;7.572;2022-08-07T02:20:08;101259.16;;;12.16;65.87
45888;BME280;31595;51.418;7.572;2022-08-07T02:22:37;101260.00;;;12.17;66.15
45888;BME280;31595;51.418;7.572;2022-08-07T02:25:05;101253.88;;;12.15;66.09
45888;BME280;31595;51.418;7.572;2022-08-07T02:27:35;101258.66;;;12.14;66.02
45888;BME280;31595;51.418;7.572;2022-08-07T02:30:04;101253.66;;;12.11;66.50
45888;BME280;31595;51.418;7.572;2022-08-07T02:32:32;101260.16;;;12.07;65.92
45888;BME280;31595;51.418;7.572;2022-08-07T02:35:03;101259.44;;;12.01;66.52
45888;BME280;31595;51.418;7.572;2022-08-07T02:37:34;101259.44;;;12.01;66.38
45888;BME280;31595;51.418;7.572;2022-08-07T02:40:04;101255.50;;;12.02;66.25
45888;BME280;31595;51.418;7.572;2022-08-07T02:42:33;101256.13;;;11.99;66.23
45888;BME280;31595;51.418;7.572;2022-08-07T02:45:05;101245.53;;;11.96;66.08
45888;BME280;31595;51.418;7.572;2022-08-07T02:47:33;101257.34;;;11.93;66.00
45888;BME280;31595;51.418;7.572;2022-08-07T02:50:01;101256.28;;;11.89;66.46
45888;BME280;31595;51.418;7.572;2022-08-07T02:52:31;101248.72;;;11.89;66.29
45888;BME280;31595;51.418;7.572;2022-08-07T02:55:06;101254.59;;;11.88;66.76
45888;BME280;31595;51.418;7.572;2022-08-07T02:57:35;101244.56;;;11.87;66.68
45888;BME280;31595;51.418;7.572;2022-08-07T03:00:07;101238.44;;;11.85;66.67
45888;BME280;31595;51.418;7.572;2022-08-07T03:02:36;101246.19;;;11.88;66.89
45888;BME280;31595;51.418;7.572;2022-08-07T03:05:04;101244.56;;;11.87;66.99
45888;BME280;31595;51.418;7.572;2022-08-07T03:07:32;101240.91;;;11.86;66.95
45888;BME280;31595;51.418;7.572;2022-08-07T03:10:01;101243.50;;;11.83;67.08
45888;BME280;31595;51.418;7.572;2022-08-07T03:12:29;101250.22;;;11.82;67.31
45888;BME280;31595;51.418;7.572;2022-08-07T03:14:56;101248.03;;;11.78;67.44
45888;BME280;31595;51.418;7.572;2022-08-07T03:17:26;101245.78;;;11.81;67.15
45888;BME280;31595;51.418;7.572;2022-08-07T03:19:54;101243.56;;;11.77;67.08
45888;BME280;31595;51.418;7.572;2022-08-07T03:22:23;101250.84;;;11.78;66.45
45888;BME280;31595;51.418;7.572;2022-08-07T03:24:50;101248.09;;;11.73;66.88
45888;BME280;31595;51.418;7.572;2022-08-07T03:27:19;101246.84;;;11.66;66.84
45888;BME280;31595;51.418;7.572;2022-08-07T03:29:48;101247.13;;;11.64;67.18
45888;BME280;31595;51.418;7.572;2022-08-07T03:32:22;101243.91;;;11.57;67.19
45888;BME280;31595;51.418;7.572;2022-08-07T03:34:53;101242.25;;;11.56;67.70
45888;BME280;31595;51.418;7.572;2022-08-07T03:37:24;101244.78;;;11.52;67.82
45888;BME280;31595;51.418;7.572;2022-08-07T03:39:52;101239.53;;;11.51;67.60
45888;BME280;31595;51.418;7.572;2022-08-07T03:42:20;101237.88;;;11.50;67.61
45888;BME280;31595;51.418;7.572;2022-08-07T03:44:48;101235.06;;;11.50;67.72
45888;BME280;31595;51.418;7.572;2022-08-07T03:47:16;101238.50;;;11.47;67.60
45888;BME280;31595;51.418;7.572;2022-08-07T03:49:44;101239.31;;;11.47;67.28
45888;BME280;31595;51.418;7.572;2022-08-07T03:52:13;101244.06;;;11.47;67.20
45888;BME280;31595;51.418;7.572;2022-08-07T03:54:41;101240.75;;;11.45;67.32
45888;BME280;31595;51.418;7.572;2022-08-07T03:57:09;101250.00;;;11.40;67.39
45888;BME280;31595;51.418;7.572;2022-08-07T03:59:39;101234.94;;;11.41;66.98
45888;BME280;31595;51.418;7.572;2022-08-07T04:02:06;101242.00;;;11.33;67.35
45888;BME280;31595;51.418;7.572;2022-08-07T04:04:34;101234.25;;;11.30;67.58
45888;BME280;31595;51.418;7.572;2022-08-07T04:07:01;101234.25;;;11.30;67.49
45888;BME280;31595;51.418;7.572;2022-08-07T04:09:31;101238.69;;;11.31;67.72
45888;BME280;31595;51.418;7.572;2022-08-07T04:11:59;101228.44;;;11.27;67.69
45888;BME280;31595;51.418;7.572;2022-08-07T04:14:26;101234.84;;;11.27;67.53
45888;BME280;31595;51.418;7.572;2022-08-07T04:16:54;101230.94;;;11.28;67.78
45888;BME280;31595;51.418;7.572;2022-08-07T04:19:21;101226.47;;;11.27;67.59
45888;BME280;31595;51.418;7.572;2022-08-07T04:21:51;101234.25;;;11.30;67.39
45888;BME280;31595;51.418;7.572;2022-08-07T04:24:20;101233.03;;;11.17;67.89
45888;BME280;31595;51.418;7.572;2022-08-07T04:26:49;101225.13;;;11.25;67.45
45888;BME280;31595;51.418;7.572;2022-08-07T04:29:16;101235.81;;;11.17;67.59
45888;BME280;31595;51.418;7.572;2022-08-07T04:31:44;101239.16;;;11.20;67.80
45888;BME280;31595;51.418;7.572;2022-08-07T04:34:12;101244.94;;;11.23;67.77
45888;BME280;31595;51.418;7.572;2022-08-07T04:36:39;101233.72;;;11.28;68.29
45888;BME280;31595;51.418;7.572;2022-08-07T04:39:08;101237.56;;;11.32;68.35
45888;BME280;31595;51.418;7.572;2022-08-07T04:41:35;101243.28;;;11.22;68.71
45888;BME280;31595;51.418;7.572;2022-08-07T04:44:04;101237.88;;;11.31;68.85
45888;BME280;31595;51.418;7.572;2022-08-07T04:46:37;101249.47;;;11.38;68.54
45888;BME280;31595;51.418;7.572;2022-08-07T04:49:13;101237.97;;;11.45;68.65
45888;BME280;31595;51.418;7.572;2022-08-07T04:51:48;101239.06;;;11.44;68.24
45888;BME280;31595;51.418;7.572;2022-08-07T04:54:30;101245.41;;;11.49;68.40
45888;BME280;31595;51.418;7.572;2022-08-07T04:57:02;101242.63;;;11.49;67.92
45888;BME280;31595;51.418;7.572;2022-08-07T04:59:40;101243.91;;;11.57;68.26
45888;BME280;31595;51.418;7.572;2022-08-07T05:02:13;101248.59;;;11.62;68.01
45888;BME280;31595;51.418;7.572;2022-08-07T05:04:52;101242.09;;;11.66;68.18
45888;BME280;31595;51.418;7.572;2022-08-07T05:07:25;101243.16;;;11.70;67.99
45888;BME280;31595;51.418;7.572;2022-08-07T05:10:03;101238.84;;;11.78;67.61
45888;BME280;31595;51.418;7.572;2022-08-07T05:12:37;101247.34;;;11.87;67.98
45888;BME280;31595;51.418;7.572;2022-08-07T05:15:10;101255.38;;;11.93;67.87
45888;BME280;31595;51.418;7.572;2022-08-07T05:17:45;101244.31;;;12.02;67.87
45888;BME280;31595;51.418;7.572;2022-08-07T05:20:15;101244.56;;;12.06;67.70
45888;BME280;31595;51.418;7.572;2022-08-07T05:22:44;101250.56;;;12.13;67.56
45888;BME280;31595;51.418;7.572;2022-08-07T05:25:15;101255.41;;;12.07;68.10
45888;BME280;31595;51.418;7.572;2022-08-07T05:27:45;101252.97;;;12.19;67.76
45888;BME280;31595;51.418;7.572;2022-08-07T05:30:15;101257.84;;;12.28;68.00
45888;BME280;31595;51.418;7.572;2022-08-07T05:32:43;101248.88;;;12.31;68.12
45888;BME280;31595;51.418;7.572;2022-08-07T05:35:13;101253.94;;;12.43;68.08
45888;BME280;31595;51.418;7.572;2022-08-07T05:37:41;101259.34;;;12.53;67.87
45888;BME280;31595;51.418;7.572;2022-08-07T05:40:10;101265.75;;;12.53;67.81
45888;BME280;31595;51.418;7.572;2022-08-07T05:42:37;101266.59;;;12.68;67.23
45888;BME280;31595;51.418;7.572;2022-08-07T05:45:06;101256.38;;;12.77;66.74
45888;BME280;31595;51.418;7.572;2022-08-07T05:47:35;101259.56;;;12.84;66.45
45888;BME280;31595;51.418;7.572;2022-08-07T05:50:04;101252.97;;;12.94;66.68
45888;BME280;31595;51.418;7.572;2022-08-07T05:52:31;101261.13;;;13.04;66.16
45888;BME280;31595;51.418;7.572;2022-08-07T05:55:00;101260.59;;;13.16;66.08
45888;BME280;31595;51.418;7.572;2022-08-07T05:57:28;101260.38;;;13.26;65.74
45888;BME280;31595;51.418;7.572;2022-08-07T05:59:57;101270.84;;;13.34;65.30
45888;BME280;31595;51.418;7.572;2022-08-07T06:02:27;101262.75;;;13.47;65.57
45888;BME280;31595;51.418;7.572;2022-08-07T06:04:58;101268.22;;;13.52;65.23
45888;BME280;31595;51.418;7.572;2022-08-07T06:07:28;101269.97;;;13.62;64.94
45888;BME280;31595;51.418;7.572;2022-08-07T06:09:56;101267.25;;;13.70;64.83
45888;BME280;31595;51.418;7.572;2022-08-07T06:12:23;101263.03;;;13.81;64.72
45888;BME280;31595;51.418;7.572;2022-08-07T06:14:51;101262.63;;;13.88;64.77
45888;BME280;31595;51.418;7.572;2022-08-07T06:17:18;101262.69;;;13.97;64.62
45888;BME280;31595;51.418;7.572;2022-08-07T06:19:47;101259.94;;;14.06;64.56
45888;BME280;31595;51.418;7.572;2022-08-07T06:22:16;101274.41;;;14.21;64.08
45888;BME280;31595;51.418;7.572;2022-08-07T06:24:45;101269.00;;;14.34;63.88
45888;BME280;31595;51.418;7.572;2022-08-07T06:27:19;101266.13;;;14.48;63.73
45888;BME280;31595;51.418;7.572;2022-08-07T06:29:46;101265.91;;;14.58;62.75
45888;BME280;31595;51.418;7.572;2022-08-07T06:32:14;101266.25;;;14.65;62.47
45888;BME280;31595;51.418;7.572;2022-08-07T06:34:41;101266.34;;;14.82;62.42
45888;BME280;31595;51.418;7.572;2022-08-07T06:37:08;101266.03;;;14.93;62.31
45888;BME280;31595;51.418;7.572;2022-08-07T06:39:37;101261.13;;;15.07;61.86
45888;BME280;31595;51.418;7.572;2022-08-07T06:42:07;101260.69;;;15.22;61.18
45888;BME280;31595;51.418;7.572;2022-08-07T06:44:37;101252.78;;;15.33;61.26
45888;BME280;31595;51.418;7.572;2022-08-07T06:47:06;101255.44;;;15.47;60.63
45888;BME280;31595;51.418;7.572;2022-08-07T06:49:33;101255.94;;;15.49;60.54
45888;BME280;31595;51.418;7.572;2022-08-07T06:52:02;101250.84;;;15.69;60.20
45888;BME280;31595;51.418;7.572;2022-08-07T06:54:30;101256.81;;;15.76;59.75
45888;BME280;31595;51.418;7.572;2022-08-07T06:56:59;101241.25;;;15.87;59.32
45888;BME280;31595;51.418;7.572;2022-08-07T06:59:30;101232.69;;;15.92;59.27
45888;BME280;31595;51.418;7.572;2022-08-07T07:01:58;101239.09;;;16.01;59.41
45888;BME280;31595;51.418;7.572;2022-08-07T07:04:28;101234.94;;;16.16;59.03
45888;BME280;31595;51.418;7.572;2022-08-07T07:06:56;101234.75;;;16.30;58.78
45888;BME280;31595;51.418;7.572;2022-08-07T07:09:25;101232.13;;;16.34;59.00
45888;BME280;31595;51.418;7.572;2022-08-07T07:12:00;101234.38;;;16.49;58.30
45888;BME280;31595;51.418;7.572;2022-08-07T07:14:35;101229.84;;;16.66;57.91
45888;BME280;31595;51.418;7.572;2022-08-07T07:17:07;101236.94;;;16.80;57.83
45888;BME280;31595;51.418;7.572;2022-08-07T07:19:40;101236.34;;;16.96;56.99
45888;BME280;31595;51.418;7.572;2022-08-07T07:22:10;101226.38;;;16.98;56.79
45888;BME280;31595;51.418;7.572;2022-08-07T07:24:39;101230.97;;;17.12;56.50
45888;BME280;31595;51.418;7.572;2022-08-07T07:27:09;101224.53;;;17.32;56.14
45888;BME280;31595;51.418;7.572;2022-08-07T07:29:40;101231.41;;;17.64;55.26
45888;BME280;31595;51.418;7.572;2022-08-07T07:32:16;101225.00;;;18.31;54.00
45888;BME280;31595;51.418;7.572;2022-08-07T07:34:47;101228.38;;;19.19;51.99
45888;BME280;31595;51.418;7.572;2022-08-07T07:37:15;101225.16;;;20.14;50.42
45888;BME280;31595;51.418;7.572;2022-08-07T07:39:43;101216.78;;;20.61;48.83
45888;BME280;31595;51.418;7.572;2022-08-07T07:42:14;101222.44;;;21.44;46.46
45888;BME280;31595;51.418;7.572;2022-08-07T07:44:44;101211.56;;;22.24;43.99
45888;BME280;31595;51.418;7.572;2022-08-07T07:47:13;101209.53;;;22.94;42.50
45888;BME280;31595;51.418;7.572;2022-08-07T07:49:42;101204.44;;;23.90;40.29
45888;BME280;31595;51.418;7.572;2022-08-07T07:52:12;101198.72;;;24.65;38.70
45888;BME280;31595;51.418;7.572;2022-08-07T07:54:42;101197.25;;;25.41;37.83
45888;BME280;31595;51.418;7.572;2022-08-07T07:57:13;101194.34;;;26.47;36.03
45888;BME280;31595;51.418;7.572;2022-08-07T07:59:42;101182.47;;;27.45;34.13
45888;BME280;31595;51.418;7.572;2022-08-07T08:02:10;101182.84;;;28.32;32.93
45888;BME280;31595;51.418;7.572;2022-08-07T08:04:42;101186.44;;;28.95;31.24
45888;BME280;31595;51.418;7.572;2022-08-07T08:07:12;101178.50;;;29.86;29.74
45888;BME280;31595;51.418;7.572;2022-08-07T08:09:40;101174.78;;;30.94;28.83
45888;BME280;31595;51.418;7.572;2022-08-07T08:12:08;101172.34;;;31.76;27.50
45888;BME280;31595;51.418;7.572;2022-08-07T08:14:37;101176.88;;;32.67;26.12
45888;BME280;31595;51.418;7.572;2022-08-07T08:17:04;101166.41;;;32.89;26.23
45888;BME280;31595;51.418;7.572;2022-08-07T08:19:35;101165.50;;;33.67;24.97
45888;BME280;31595;51.418;7.572;2022-08-07T08:22:04;101166.97;;;34.40;24.01
45888;BME280;31595;51.418;7.572;2022-08-07T08:25:05;101163.66;;;34.89;23.61
45888;BME280;31595;51.418;7.572;2022-08-07T08:27:53;101159.00;;;35.92;22.18
45888;BME280;31595;51.418;7.572;2022-08-07T08:30:23;101154.78;;;36.56;21.56
45888;BME280;31595;51.418;7.572;2022-08-07T08:32:53;101159.44;;;37.40;20.68
45888;BME280;31595;51.418;7.572;2022-08-07T08:35:24;101158.38;;;37.89;19.96
45888;BME280;31595;51.418;7.572;2022-08-07T08:37:56;101149.41;;;38.45;19.61
45888;BME280;31595;51.418;7.572;2022-08-07T08:40:28;101149.34;;;39.11;18.66
45888;BME280;31595;51.418;7.572;2022-08-07T08:43:02;101153.97;;;39.72;17.97
45888;BME280;31595;51.418;7.572;2022-08-07T08:45:38;101138.22;;;40.64;16.39
45888;BME280;31595;51.418;7.572;2022-08-07T08:48:17;101138.69;;;41.18;15.20
45888;BME280;31595;51.418;7.572;2022-08-07T08:50:53;101140.41;;;42.15;14.43
45888;BME280;31595;51.418;7.572;2022-08-07T08:53:27;101143.25;;;42.04;14.29
45888;BME280;31595;51.418;7.572;2022-08-07T08:55:59;101149.72;;;43.00;12.87
45888;BME280;31595;51.418;7.572;2022-08-07T08:58:34;101131.44;;;43.33;11.79
45888;BME280;31595;51.418;7.572;2022-08-07T09:01:09;101128.03;;;43.91;11.57
45888;BME280;31595;51.418;7.572;2022-08-07T09:03:44;101130.97;;;43.96;10.50
45888;BME280;31595;51.418;7.572;2022-08-07T09:06:20;101125.88;;;45.06;10.57
45888;BME280;31595;51.418;7.572;2022-08-07T09:09:01;101131.97;;;46.52;9.66
45888;BME280;31595;51.418;7.572;2022-08-07T09:11:34;101122.78;;;46.99;8.91
45888;BME280;31595;51.418;7.572;2022-08-07T09:14:10;101122.78;;;47.37;8.71
45888;BME280;31595;51.418;7.572;2022-08-07T09:16:56;101116.72;;;47.67;8.49
45888;BME280;31595;51.418;7.572;2022-08-07T09:19:44;101102.84;;;48.08;8.74
45888;BME280;31595;51.418;7.572;2022-08-07T09:22:33;101114.00;;;48.55;8.61
45888;BME280;31595;51.418;7.572;2022-08-07T09:25:09;101113.81;;;48.40;8.89
45888;BME280;31595;51.418;7.572;2022-08-07T09:27:42;101107.19;;;48.60;8.47
45888;BME280;31595;51.418;7.572;2022-08-07T09:30:12;101103.97;;;48.98;7.99
45888;BME280;31595;51.418;7.572;2022-08-07T09:33:05;101107.66;;;48.37;8.19
45888;BME280;31595;51.418;7.572;2022-08-07T09:35:43;101101.72;;;49.04;8.16
45888;BME280;31595;51.418;7.572;2022-08-07T09:38:18;101096.56;;;49.39;7.43
45888;BME280;31595;51.418;7.572;2022-08-07T09:41:03;101095.22;;;49.27;8.10
45888;BME280;31595;51.418;7.572;2022-08-07T09:43:50;101104.94;;;49.14;7.32
45888;BME280;31595;51.418;7.572;2022-08-07T09:46:27;101104.84;;;49.75;7.07
45888;BME280;31595;51.418;7.572;2022-08-07T09:49:08;101103.25;;;49.74;8.21
45888;BME280;31595;51.418;7.572;2022-08-07T09:51:53;101097.97;;;49.59;6.86
45888;BME280;31595;51.418;7.572;2022-08-07T09:54:25;101095.66;;;49.44;7.76
45888;BME280;31595;51.418;7.572;2022-08-07T09:57:14;101083.16;;;49.80;6.85
45888;BME280;31595;51.418;7.572;2022-08-07T10:00:00;101089.75;;;50.15;7.49
45888;BME280;31595;51.418;7.572;2022-08-07T10:02:49;101092.22;;;50.24;6.97
45888;BME280;31595;51.418;7.572;2022-08-07T10:05:37;101075.38;;;50.48;6.71
45888;BME280;31595;51.418;7.572;2022-08-07T10:08:26;101080.31;;;49.95;7.64
45888;BME280;31595;51.418;7.572;2022-08-07T10:11:04;101073.94;;;50.12;7.14
45888;BME280;31595;51.418;7.572;2022-08-07T10:13:44;101082.25;;;50.14;6.83
45888;BME280;31595;51.418;7.572;2022-08-07T10:16:33;101075.63;;;50.29;7.25
45888;BME280;31595;51.418;7.572;2022-08-07T10:22:11;101065.19;;;49.36;7.56
45888;BME280;31595;51.418;7.572;2022-08-07T10:25:08;101068.84;;;49.50;7.69
45888;BME280;31595;51.418;7.572;2022-08-07T10:27:51;101074.56;;;48.12;8.08
45888;BME280;31595;51.418;7.572;2022-08-07T10:30:25;101073.47;;;47.83;8.30
45888;BME280;31595;51.418;7.572;2022-08-07T10:33:21;101079.59;;;47.72;8.46
45888;BME280;31595;51.418;7.572;2022-08-07T10:36:03;101065.00;;;48.20;8.39
45888;BME280;31595;51.418;7.572;2022-08-07T10:38:46;101065.81;;;48.20;8.04
45888;BME280;31595;51.418;7.572;2022-08-07T10:41:24;101057.16;;;48.09;8.10
45888;BME280;31595;51.418;7.572;2022-08-07T10:44:06;101054.25;;;47.63;8.52
45888;BME280;31595;51.418;7.572;2022-08-07T10:46:41;101062.41;;;47.57;8.71
45888;BME280;31595;51.418;7.572;2022-08-07T10:49:14;101049.44;;;48.46;7.56
45888;BME280;31595;51.418;7.572;2022-08-07T10:51:52;101049.69;;;47.62;8.08
45888;BME280;31595;51.418;7.572;2022-08-07T10:54:29;101051.38;;;48.03;7.84
45888;BME280;31595;51.418;7.572;2022-08-07T10:57:07;101040.50;;;47.33;8.47
45888;BME280;31595;51.418;7.572;2022-08-07T11:00:03;101044.78;;;48.10;8.15
45888;BME280;31595;51.418;7.572;2022-08-07T11:02:36;101038.63;;;48.22;8.28
45888;BME280;31595;51.418;7.572;2022-08-07T11:05:13;101030.47;;;48.01;7.96
45888;BME280;31595;51.418;7.572;2022-08-07T11:07:49;101033.38;;;47.88;7.97
45888;BME280;31595;51.418;7.572;2022-08-07T11:10:27;101022.19;;;48.26;7.65
45888;BME280;31595;51.418;7.572;2022-08-07T11:12:59;101014.72;;;48.60;7.54
45888;BME280;31595;51.418;7.572;2022-08-07T11:15:31;101016.53;;;48.76;7.41
45888;BME280;31595;51.418;7.572;2022-08-07T11:18:03;101013.91;;;48.86;8.38
45888;BME280;31595;51.418;7.572;2022-08-07T11:20:40;101009.75;;;49.02;7.83
45888;BME280;31595;51.418;7.572;2022-08-07T11:23:10;101006.88;;;49.31;7.90
45888;BME280;31595;51.418;7.572;2022-08-07T11:25:49;101015.41;;;49.13;7.50
45888;BME280;31595;51.418;7.572;2022-08-07T11:28:22;101015.03;;;48.35;7.93
45888;BME280;31595;51.418;7.572;2022-08-07T11:30:55;101001.88;;;48.57;8.33
45888;BME280;31595;51.418;7.572;2022-08-07T11:33:33;101009.28;;;48.98;7.61
45888;BME280;31595;51.418;7.572;2022-08-07T11:36:15;101008.31;;;48.34;8.02
45888;BME280;31595;51.418;7.572;2022-08-07T11:38:51;100999.00;;;48.04;7.88
45888;BME280;31595;51.418;7.572;2022-08-07T11:41:22;101001.81;;;47.83;8.06
45888;BME280;31595;51.418;7.572;2022-08-07T11:43:57;100997.13;;;46.96;8.49
45888;BME280;31595;51.418;7.572;2022-08-07T11:46:38;100992.56;;;47.60;8.54
45888;BME280;31595;51.418;7.572;2022-08-07T11:49:20;100997.00;;;47.21;8.97
45888;BME280;31595;51.418;7.572;2022-08-07T11:52:02;100995.41;;;47.20;8.54
45888;BME280;31595;51.418;7.572;2022-08-07T11:54:45;101000.09;;;47.09;9.24
45888;BME280;31595;51.418;7.572;2022-08-07T11:57:25;101005.38;;;47.49;8.72
45888;BME280;31595;51.418;7.572;2022-08-07T12:00:06;101000.41;;;47.25;8.61
45888;BME280;31595;51.418;7.572;2022-08-07T12:05:47;101003.91;;;44.07;10.04
45888;BME280;31595;51.418;7.572;2022-08-07T12:08:23;101000.28;;;45.01;10.19
45888;BME280;31595;51.418;7.572;2022-08-07T12:10:55;100994.94;;;45.90;9.19
45888;BME280;31595;51.418;7.572;2022-08-07T12:13:28;100993.38;;;45.59;9.22
45888;BME280;31595;51.418;7.572;2022-08-07T12:16:04;100991.25;;;45.60;9.28
45888;BME280;31595;51.418;7.572;2022-08-07T12:18:36;100990.75;;;45.55;9.27
45888;BME280;31595;51.418;7.572;2022-08-07T12:21:15;100994.16;;;45.65;9.50
45888;BME280;31595;51.418;7.572;2022-08-07T12:23:51;100991.25;;;45.60;9.81
45888;BME280;31595;51.418;7.572;2022-08-07T12:26:27;100993.94;;;45.57;10.32
45888;BME280;31595;51.418;7.572;2022-08-07T12:29:02;100985.38;;;45.29;9.36
45888;BME280;31595;51.418;7.572;2022-08-07T12:31:37;100974.75;;;44.85;9.96
45888;BME280;31595;51.418;7.572;2022-08-07T12:34:05;100981.16;;;45.19;9.67
45888;BME280;31595;51.418;7.572;2022-08-07T12:36:33;100974.06;;;45.03;9.57
45888;BME280;31595;51.418;7.572;2022-08-07T12:39:03;100974.13;;;44.45;10.22
45888;BME280;31595;51.418;7.572;2022-08-07T12:41:34;100964.91;;;44.18;10.21
45888;BME280;31595;51.418;7.572;2022-08-07T12:44:06;100964.97;;;44.07;10.70
45888;BME280;31595;51.418;7.572;2022-08-07T12:46:56;100954.16;;;44.32;10.07
45888;BME280;31595;51.418;7.572;2022-08-07T12:49:33;100960.50;;;44.42;10.33
45888;BME280;31595;51.418;7.572;2022-08-07T12:52:05;100962.63;;;43.60;10.88
45888;BME280;31595;51.418;7.572;2022-08-07T12:54:43;100961.47;;;42.67;11.00
45888;BME280;31595;51.418;7.572;2022-08-07T12:57:13;100962.00;;;42.60;10.98
45888;BME280;31595;51.418;7.572;2022-08-07T12:59:46;100958.41;;;41.79;11.79
45888;BME280;31595;51.418;7.572;2022-08-07T13:02:31;100965.69;;;41.52;11.81
45888;BME280;31595;51.418;7.572;2022-08-07T13:05:08;100958.44;;;41.47;11.65
45888;BME280;31595;51.418;7.572;2022-08-07T13:08:01;100955.84;;;40.45;12.32
45888;BME280;31595;51.418;7.572;2022-08-07T13:10:40;100952.06;;;40.65;12.44
45888;BME280;31595;51.418;7.572;2022-08-07T13:13:28;100958.00;;;40.70;12.36
45888;BME280;31595;51.418;7.572;2022-08-07T13:16:06;100952.84;;;40.60;12.01
45888;BME280;31595;51.418;7.572;2022-08-07T13:18:38;100947.56;;;40.64;12.26
45888;BME280;31595;51.418;7.572;2022-08-07T13:21:12;100952.41;;;40.46;12.25
45888;BME280;31595;51.418;7.572;2022-08-07T13:23:46;100940.72;;;40.26;12.57
45888;BME280;31595;51.418;7.572;2022-08-07T13:26:21;100951.38;;;39.23;13.22